sensor_id;sensor_type;location;lat;lon;timestamp;P1;durP1;ratioP1;P2;durP2;ratioP2
17207;SDS011;8720;48.488;9.202;2023-12-22T00:00:33;4.50;;;1.30;;
17207;SDS011;8720;48.488;9.202;2023-12-22T00:03:01;1.20;;;0.97;;
17207;SDS011;8720;48.488;9.202;2023-12-22T00:05:29;1.67;;;0.80;;
17207;SDS011;8720;48.488;9.202;2023-12-22T00:11:20;1.47;;;0.90;;
17207;SDS011;8720;48.488;9.202;2023-12-22T00:13:47;2.77;;;1.20;;
17207;SDS011;8720;48.488;9.202;2023-12-22T00:16:16;2.13;;;0.83;;
17207;SDS011;8720;48.488;9.202;2023-12-22T00:18:44;2.70;;;1.07;;
17207;SDS011;8720;48.488;9.202;2023-12-22T00:21:11;2.70;;;1.13;;
17207;SDS011;8720;48.488;9.202;2023-12-22T00:23:38;3.37;;;1.30;;
17207;SDS011;8720;48.488;9.202;2023-12-22T00:26:06;4.10;;;1.10;;
17207;SDS011;8720;48.488;9.202;2023-12-22T00:28:33;4.27;;;1.20;;
17207;SDS011;8720;48.488;9.202;2023-12-22T00:31:01;2.83;;;1.33;;
17207;SDS011;8720;48.488;9.202;2023-12-22T00:33:30;2.43;;;1.37;;
17207;SDS011;8720;48.488;9.202;2023-12-22T00:35:57;2.23;;;1.10;;
17207;SDS011;8720;48.488;9.202;2023-12-22T00:38:25;4.93;;;1.00;;
17207;SDS011;8720;48.488;9.202;2023-12-22T00:40:53;3.40;;;1.30;;
17207;SDS011;8720;48.488;9.202;2023-12-22T00:43:20;1.70;;;1.60;;
17207;SDS011;8720;48.488;9.202;2023-12-22T00:45:47;1.80;;;1.10;;
17207;SDS011;8720;48.488;9.202;2023-12-22T00:48:15;3.50;;;1.23;;
17207;SDS011;8720;48.488;9.202;2023-12-22T00:50:43;7.13;;;1.80;;
17207;SDS011;8720;48.488;9.202;2023-12-22T00:53:11;2.70;;;1.37;;
17207;SDS011;8720;48.488;9.202;2023-12-22T00:55:39;2.73;;;1.40;;
17207;SDS011;8720;48.488;9.202;2023-12-22T00:58:07;3.53;;;1.50;;
17207;SDS011;8720;48.488;9.202;2023-12-22T01:00:34;3.83;;;1.70;;
17207;SDS011;8720;48.488;9.202;2023-12-22T01:03:01;2.70;;;1.43;;
17207;SDS011;8720;48.488;9.202;2023-12-22T01:05:29;3.10;;;1.20;;
17207;SDS011;8720;48.488;9.202;2023-12-22T01:07:58;1.90;;;1.40;;
17207;SDS011;8720;48.488;9.202;2023-12-22T01:10:29;4.57;;;1.60;;
17207;SDS011;8720;48.488;9.202;2023-12-22T01:12:56;3.13;;;1.20;;
17207;SDS011;8720;48.488;9.202;2023-12-22T01:15:24;1.83;;;1.10;;
17207;SDS011;8720;48.488;9.202;2023-12-22T01:17:51;4.77;;;1.80;;
17207;SDS011;8720;48.488;9.202;2023-12-22T01:20:19;1.70;;;1.07;;
17207;SDS011;8720;48.488;9.202;2023-12-22T01:22:46;2.93;;;1.20;;
17207;SDS011;8720;48.488;9.202;2023-12-22T01:25:15;2.33;;;1.03;;
17207;SDS011;8720;48.488;9.202;2023-12-22T01:27:43;2.57;;;1.27;;
17207;SDS011;8720;48.488;9.202;2023-12-22T01:30:11;2.93;;;1.30;;
17207;SDS011;8720;48.488;9.202;2023-12-22T01:32:39;3.20;;;1.17;;
17207;SDS011;8720;48.488;9.202;2023-12-22T01:35:06;3.43;;;0.83;;
17207;SDS011;8720;48.488;9.202;2023-12-22T01:37:35;2.70;;;0.80;;
17207;SDS011;8720;48.488;9.202;2023-12-22T01:40:03;2.23;;;0.90;;
17207;SDS011;8720;48.488;9.202;2023-12-22T01:42:33;1.43;;;0.77;;
17207;SDS011;8720;48.488;9.202;2023-12-22T01:45:01;2.60;;;0.73;;
17207;SDS011;8720;48.488;9.202;2023-12-22T01:47:28;1.50;;;0.80;;
17207;SDS011;8720;48.488;9.202;2023-12-22T01:49:56;1.30;;;0.60;;
17207;SDS011;8720;48.488;9.202;2023-12-22T01:52:23;1.10;;;0.70;;
17207;SDS011;8720;48.488;9.202;2023-12-22T01:54:52;2.80;;;0.90;;
17207;SDS011;8720;48.488;9.202;2023-12-22T01:57:21;1.50;;;0.77;;
17207;SDS011;8720;48.488;9.202;2023-12-22T01:59:50;1.90;;;0.80;;
17207;SDS011;8720;48.488;9.202;2023-12-22T02:02:20;1.77;;;1.00;;
17207;SDS011;8720;48.488;9.202;2023-12-22T02:04:48;1.50;;;0.70;;
17207;SDS011;8720;48.488;9.202;2023-12-22T02:07:16;1.70;;;0.70;;
17207;SDS011;8720;48.488;9.202;2023-12-22T02:09:43;1.10;;;0.67;;
17207;SDS011;8720;48.488;9.202;2023-12-22T02:12:11;2.00;;;0.80;;
17207;SDS011;8720;48.488;9.202;2023-12-22T02:14:38;2.03;;;0.87;;
17207;SDS011;8720;48.488;9.202;2023-12-22T02:17:11;1.87;;;0.90;;
17207;SDS011;8720;48.488;9.202;2023-12-22T02:19:47;2.23;;;0.90;;
17207;SDS011;8720;48.488;9.202;2023-12-22T02:22:15;2.03;;;0.80;;
17207;SDS011;8720;48.488;9.202;2023-12-22T02:24:43;4.10;;;0.93;;
17207;SDS011;8720;48.488;9.202;2023-12-22T02:27:17;2.17;;;1.00;;
17207;SDS011;8720;48.488;9.202;2023-12-22T02:30:06;3.77;;;0.80;;
17207;SDS011;8720;48.488;9.202;2023-12-22T02:32:40;2.10;;;1.00;;
17207;SDS011;8720;48.488;9.202;2023-12-22T02:35:14;2.73;;;1.43;;
17207;SDS011;8720;48.488;9.202;2023-12-22T02:37:45;3.20;;;1.00;;
17207;SDS011;8720;48.488;9.202;2023-12-22T02:40:16;2.90;;;1.00;;
17207;SDS011;8720;48.488;9.202;2023-12-22T02:42:45;4.23;;;1.40;;
17207;SDS011;8720;48.488;9.202;2023-12-22T02:45:14;2.60;;;1.70;;
17207;SDS011;8720;48.488;9.202;2023-12-22T02:47:43;1.87;;;1.17;;
17207;SDS011;8720;48.488;9.202;2023-12-22T02:50:11;3.03;;;1.53;;
17207;SDS011;8720;48.488;9.202;2023-12-22T02:52:41;2.90;;;1.10;;
17207;SDS011;8720;48.488;9.202;2023-12-22T02:55:09;2.20;;;1.23;;
17207;SDS011;8720;48.488;9.202;2023-12-22T02:57:37;4.73;;;1.27;;
17207;SDS011;8720;48.488;9.202;2023-12-22T03:00:05;4.57;;;1.50;;
17207;SDS011;8720;48.488;9.202;2023-12-22T03:02:34;2.27;;;1.53;;
17207;SDS011;8720;48.488;9.202;2023-12-22T03:05:01;2.80;;;1.33;;
17207;SDS011;8720;48.488;9.202;2023-12-22T03:07:29;4.10;;;1.33;;
17207;SDS011;8720;48.488;9.202;2023-12-22T03:09:57;6.17;;;1.80;;
17207;SDS011;8720;48.488;9.202;2023-12-22T03:12:24;3.13;;;1.40;;
17207;SDS011;8720;48.488;9.202;2023-12-22T03:14:53;6.50;;;1.80;;
17207;SDS011;8720;48.488;9.202;2023-12-22T03:17:20;2.90;;;1.00;;
17207;SDS011;8720;48.488;9.202;2023-12-22T03:19:47;2.67;;;1.10;;
17207;SDS011;8720;48.488;9.202;2023-12-22T03:22:15;1.83;;;1.00;;
17207;SDS011;8720;48.488;9.202;2023-12-22T03:24:42;2.80;;;1.00;;
17207;SDS011;8720;48.488;9.202;2023-12-22T03:27:10;2.10;;;1.00;;
17207;SDS011;8720;48.488;9.202;2023-12-22T03:29:41;1.60;;;0.80;;
17207;SDS011;8720;48.488;9.202;2023-12-22T03:32:10;2.53;;;0.90;;
17207;SDS011;8720;48.488;9.202;2023-12-22T03:34:37;2.20;;;0.90;;
17207;SDS011;8720;48.488;9.202;2023-12-22T03:37:04;2.07;;;0.90;;
17207;SDS011;8720;48.488;9.202;2023-12-22T03:39:31;1.97;;;0.90;;
17207;SDS011;8720;48.488;9.202;2023-12-22T03:41:59;2.40;;;1.00;;
17207;SDS011;8720;48.488;9.202;2023-12-22T03:44:26;4.10;;;1.10;;
17207;SDS011;8720;48.488;9.202;2023-12-22T03:46:53;2.37;;;0.90;;
17207;SDS011;8720;48.488;9.202;2023-12-22T03:49:22;3.10;;;0.90;;
17207;SDS011;8720;48.488;9.202;2023-12-22T03:51:49;3.20;;;0.90;;
17207;SDS011;8720;48.488;9.202;2023-12-22T03:54:17;1.77;;;1.00;;
17207;SDS011;8720;48.488;9.202;2023-12-22T03:56:44;1.57;;;0.80;;
17207;SDS011;8720;48.488;9.202;2023-12-22T03:59:11;1.33;;;0.87;;
17207;SDS011;8720;48.488;9.202;2023-12-22T04:01:39;2.50;;;0.83;;
17207;SDS011;8720;48.488;9.202;2023-12-22T04:04:07;1.77;;;0.80;;
17207;SDS011;8720;48.488;9.202;2023-12-22T04:06:38;1.73;;;1.00;;
17207;SDS011;8720;48.488;9.202;2023-12-22T04:09:06;2.27;;;1.00;;
17207;SDS011;8720;48.488;9.202;2023-12-22T04:11:33;2.57;;;0.87;;
17207;SDS011;8720;48.488;9.202;2023-12-22T04:14:02;1.10;;;0.90;;
17207;SDS011;8720;48.488;9.202;2023-12-22T04:16:29;2.40;;;0.83;;
17207;SDS011;8720;48.488;9.202;2023-12-22T04:18:56;2.27;;;1.03;;
17207;SDS011;8720;48.488;9.202;2023-12-22T04:21:24;3.07;;;1.20;;
17207;SDS011;8720;48.488;9.202;2023-12-22T04:23:52;2.67;;;1.13;;
17207;SDS011;8720;48.488;9.202;2023-12-22T04:26:19;3.57;;;1.30;;
17207;SDS011;8720;48.488;9.202;2023-12-22T04:28:47;2.10;;;1.17;;
17207;SDS011;8720;48.488;9.202;2023-12-22T04:31:14;1.83;;;1.07;;
17207;SDS011;8720;48.488;9.202;2023-12-22T04:33:41;2.33;;;1.10;;
17207;SDS011;8720;48.488;9.202;2023-12-22T04:36:09;3.03;;;1.30;;
17207;SDS011;8720;48.488;9.202;2023-12-22T04:38:36;3.63;;;1.70;;
17207;SDS011;8720;48.488;9.202;2023-12-22T04:41:07;5.23;;;1.50;;
17207;SDS011;8720;48.488;9.202;2023-12-22T04:43:34;1.77;;;1.07;;
17207;SDS011;8720;48.488;9.202;2023-12-22T04:46:01;2.50;;;1.10;;
17207;SDS011;8720;48.488;9.202;2023-12-22T04:48:29;4.13;;;1.40;;
17207;SDS011;8720;48.488;9.202;2023-12-22T04:50:58;6.53;;;1.40;;
17207;SDS011;8720;48.488;9.202;2023-12-22T04:53:25;5.23;;;1.60;;
17207;SDS011;8720;48.488;9.202;2023-12-22T04:55:52;2.60;;;1.50;;
17207;SDS011;8720;48.488;9.202;2023-12-22T04:58:21;4.80;;;1.53;;
17207;SDS011;8720;48.488;9.202;2023-12-22T05:00:49;5.37;;;1.83;;
17207;SDS011;8720;48.488;9.202;2023-12-22T05:03:16;3.30;;;1.30;;
17207;SDS011;8720;48.488;9.202;2023-12-22T05:05:44;2.77;;;1.40;;
17207;SDS011;8720;48.488;9.202;2023-12-22T05:08:11;2.80;;;1.40;;
17207;SDS011;8720;48.488;9.202;2023-12-22T05:10:38;4.60;;;1.40;;
17207;SDS011;8720;48.488;9.202;2023-12-22T05:13:06;5.50;;;1.70;;
17207;SDS011;8720;48.488;9.202;2023-12-22T05:15:34;2.73;;;1.20;;
17207;SDS011;8720;48.488;9.202;2023-12-22T05:18:02;4.27;;;1.53;;
17207;SDS011;8720;48.488;9.202;2023-12-22T05:20:30;4.80;;;2.17;;
17207;SDS011;8720;48.488;9.202;2023-12-22T05:22:57;5.57;;;1.73;;
17207;SDS011;8720;48.488;9.202;2023-12-22T05:25:25;3.20;;;1.60;;
17207;SDS011;8720;48.488;9.202;2023-12-22T05:27:52;6.37;;;2.10;;
17207;SDS011;8720;48.488;9.202;2023-12-22T05:30:19;4.37;;;1.90;;
17207;SDS011;8720;48.488;9.202;2023-12-22T05:32:48;5.20;;;2.90;;
17207;SDS011;8720;48.488;9.202;2023-12-22T05:35:15;7.90;;;1.80;;
17207;SDS011;8720;48.488;9.202;2023-12-22T05:37:43;5.33;;;1.73;;
17207;SDS011;8720;48.488;9.202;2023-12-22T05:40:10;6.77;;;1.83;;
17207;SDS011;8720;48.488;9.202;2023-12-22T05:42:37;3.77;;;1.40;;
17207;SDS011;8720;48.488;9.202;2023-12-22T05:45:05;5.07;;;2.37;;
17207;SDS011;8720;48.488;9.202;2023-12-22T05:47:36;5.63;;;2.00;;
17207;SDS011;8720;48.488;9.202;2023-12-22T05:50:05;6.80;;;2.20;;
17207;SDS011;8720;48.488;9.202;2023-12-22T05:52:36;6.03;;;1.87;;
17207;SDS011;8720;48.488;9.202;2023-12-22T05:55:03;6.73;;;2.67;;
17207;SDS011;8720;48.488;9.202;2023-12-22T05:57:33;8.73;;;1.87;;
17207;SDS011;8720;48.488;9.202;2023-12-22T06:00:00;7.77;;;1.93;;
17207;SDS011;8720;48.488;9.202;2023-12-22T06:02:30;6.47;;;2.30;;
17207;SDS011;8720;48.488;9.202;2023-12-22T06:04:57;4.80;;;1.87;;
17207;SDS011;8720;48.488;9.202;2023-12-22T06:07:26;6.27;;;2.30;;
17207;SDS011;8720;48.488;9.202;2023-12-22T06:09:54;4.60;;;1.83;;
17207;SDS011;8720;48.488;9.202;2023-12-22T06:12:21;6.30;;;2.00;;
17207;SDS011;8720;48.488;9.202;2023-12-22T06:14:48;4.27;;;1.90;;
17207;SDS011;8720;48.488;9.202;2023-12-22T06:17:15;6.57;;;1.70;;
17207;SDS011;8720;48.488;9.202;2023-12-22T06:19:43;5.10;;;2.13;;
17207;SDS011;8720;48.488;9.202;2023-12-22T06:22:10;6.13;;;1.90;;
17207;SDS011;8720;48.488;9.202;2023-12-22T06:24:39;7.67;;;2.13;;
17207;SDS011;8720;48.488;9.202;2023-12-22T06:27:06;4.10;;;1.70;;
17207;SDS011;8720;48.488;9.202;2023-12-22T06:29:33;5.53;;;2.10;;
17207;SDS011;8720;48.488;9.202;2023-12-22T06:32:01;5.83;;;2.73;;
17207;SDS011;8720;48.488;9.202;2023-12-22T06:34:31;4.97;;;1.67;;
17207;SDS011;8720;48.488;9.202;2023-12-22T06:36:58;6.10;;;2.40;;
17207;SDS011;8720;48.488;9.202;2023-12-22T06:39:25;5.40;;;1.63;;
17207;SDS011;8720;48.488;9.202;2023-12-22T06:41:54;7.53;;;2.17;;
17207;SDS011;8720;48.488;9.202;2023-12-22T06:44:21;6.43;;;2.00;;
17207;SDS011;8720;48.488;9.202;2023-12-22T06:46:50;3.97;;;1.60;;
17207;SDS011;8720;48.488;9.202;2023-12-22T06:49:18;4.07;;;1.83;;
17207;SDS011;8720;48.488;9.202;2023-12-22T06:51:45;6.40;;;2.20;;
17207;SDS011;8720;48.488;9.202;2023-12-22T06:54:12;3.77;;;1.83;;
17207;SDS011;8720;48.488;9.202;2023-12-22T06:56:40;5.33;;;1.60;;
17207;SDS011;8720;48.488;9.202;2023-12-22T06:59:08;12.03;;;2.27;;
17207;SDS011;8720;48.488;9.202;2023-12-22T07:01:37;3.40;;;1.40;;
17207;SDS011;8720;48.488;9.202;2023-12-22T07:04:04;3.70;;;1.60;;
17207;SDS011;8720;48.488;9.202;2023-12-22T07:06:32;4.07;;;1.90;;
17207;SDS011;8720;48.488;9.202;2023-12-22T07:11:59;5.73;;;1.90;;
17207;SDS011;8720;48.488;9.202;2023-12-22T07:14:27;6.80;;;2.50;;
17207;SDS011;8720;48.488;9.202;2023-12-22T07:16:55;6.77;;;2.17;;
17207;SDS011;8720;48.488;9.202;2023-12-22T07:19:23;4.73;;;1.77;;
17207;SDS011;8720;48.488;9.202;2023-12-22T07:21:50;4.23;;;2.60;;
17207;SDS011;8720;48.488;9.202;2023-12-22T07:24:18;6.43;;;2.00;;
17207;SDS011;8720;48.488;9.202;2023-12-22T07:26:45;10.33;;;2.27;;
17207;SDS011;8720;48.488;9.202;2023-12-22T07:29:12;4.17;;;1.87;;
17207;SDS011;8720;48.488;9.202;2023-12-22T07:31:41;3.77;;;1.70;;
17207;SDS011;8720;48.488;9.202;2023-12-22T07:34:09;4.63;;;2.00;;
17207;SDS011;8720;48.488;9.202;2023-12-22T07:36:36;4.70;;;2.30;;
17207;SDS011;8720;48.488;9.202;2023-12-22T07:39:04;6.70;;;1.80;;
17207;SDS011;8720;48.488;9.202;2023-12-22T07:41:34;6.97;;;2.00;;
17207;SDS011;8720;48.488;9.202;2023-12-22T07:44:01;4.70;;;1.80;;
17207;SDS011;8720;48.488;9.202;2023-12-22T07:46:29;8.97;;;3.23;;
17207;SDS011;8720;48.488;9.202;2023-12-22T07:48:57;4.40;;;1.90;;
17207;SDS011;8720;48.488;9.202;2023-12-22T07:51:25;6.57;;;2.10;;
17207;SDS011;8720;48.488;9.202;2023-12-22T07:53:52;4.53;;;2.17;;
17207;SDS011;8720;48.488;9.202;2023-12-22T07:56:19;5.57;;;2.30;;
17207;SDS011;8720;48.488;9.202;2023-12-22T07:58:48;4.57;;;1.70;;
17207;SDS011;8720;48.488;9.202;2023-12-22T08:01:15;7.13;;;2.37;;
17207;SDS011;8720;48.488;9.202;2023-12-22T08:03:42;6.23;;;2.23;;
17207;SDS011;8720;48.488;9.202;2023-12-22T08:06:11;7.50;;;2.13;;
17207;SDS011;8720;48.488;9.202;2023-12-22T08:08:39;6.93;;;2.53;;
17207;SDS011;8720;48.488;9.202;2023-12-22T08:11:07;5.93;;;2.50;;
17207;SDS011;8720;48.488;9.202;2023-12-22T08:13:34;8.57;;;2.07;;
17207;SDS011;8720;48.488;9.202;2023-12-22T08:16:02;6.63;;;2.20;;
17207;SDS011;8720;48.488;9.202;2023-12-22T08:18:30;5.57;;;1.70;;
17207;SDS011;8720;48.488;9.202;2023-12-22T08:20:58;4.70;;;2.00;;
17207;SDS011;8720;48.488;9.202;2023-12-22T08:23:27;7.00;;;2.10;;
17207;SDS011;8720;48.488;9.202;2023-12-22T08:25:54;6.73;;;1.90;;
17207;SDS011;8720;48.488;9.202;2023-12-22T08:28:23;5.03;;;2.63;;
17207;SDS011;8720;48.488;9.202;2023-12-22T08:30:51;4.37;;;2.10;;
17207;SDS011;8720;48.488;9.202;2023-12-22T08:33:18;4.73;;;2.23;;
17207;SDS011;8720;48.488;9.202;2023-12-22T08:35:46;7.93;;;2.40;;
17207;SDS011;8720;48.488;9.202;2023-12-22T08:38:13;6.20;;;2.70;;
17207;SDS011;8720;48.488;9.202;2023-12-22T08:40:42;6.73;;;2.67;;
17207;SDS011;8720;48.488;9.202;2023-12-22T08:43:10;3.63;;;2.13;;
17207;SDS011;8720;48.488;9.202;2023-12-22T08:45:37;4.30;;;2.27;;
17207;SDS011;8720;48.488;9.202;2023-12-22T08:48:05;5.60;;;2.53;;
17207;SDS011;8720;48.488;9.202;2023-12-22T08:50:34;5.00;;;2.40;;
17207;SDS011;8720;48.488;9.202;2023-12-22T08:53:01;6.20;;;2.13;;
17207;SDS011;8720;48.488;9.202;2023-12-22T08:55:29;5.53;;;2.40;;
17207;SDS011;8720;48.488;9.202;2023-12-22T08:57:57;6.10;;;2.40;;
17207;SDS011;8720;48.488;9.202;2023-12-22T09:00:25;5.60;;;2.37;;
17207;SDS011;8720;48.488;9.202;2023-12-22T09:02:52;5.33;;;2.87;;
17207;SDS011;8720;48.488;9.202;2023-12-22T09:05:19;6.67;;;1.90;;
17207;SDS011;8720;48.488;9.202;2023-12-22T09:07:47;5.47;;;2.27;;
17207;SDS011;8720;48.488;9.202;2023-12-22T09:10:17;3.60;;;1.80;;
17207;SDS011;8720;48.488;9.202;2023-12-22T09:12:44;6.83;;;2.50;;
17207;SDS011;8720;48.488;9.202;2023-12-22T09:15:13;5.53;;;2.90;;
17207;SDS011;8720;48.488;9.202;2023-12-22T09:17:44;7.00;;;2.03;;
17207;SDS011;8720;48.488;9.202;2023-12-22T09:20:11;6.63;;;2.10;;
17207;SDS011;8720;48.488;9.202;2023-12-22T09:22:39;5.43;;;2.37;;
17207;SDS011;8720;48.488;9.202;2023-12-22T09:25:06;5.33;;;2.37;;
17207;SDS011;8720;48.488;9.202;2023-12-22T09:27:35;9.60;;;3.30;;
17207;SDS011;8720;48.488;9.202;2023-12-22T09:30:02;4.90;;;2.07;;
17207;SDS011;8720;48.488;9.202;2023-12-22T09:32:33;6.33;;;2.27;;
17207;SDS011;8720;48.488;9.202;2023-12-22T09:35:01;4.10;;;2.10;;
17207;SDS011;8720;48.488;9.202;2023-12-22T09:37:28;6.83;;;2.33;;
17207;SDS011;8720;48.488;9.202;2023-12-22T09:39:56;2.97;;;2.13;;
17207;SDS011;8720;48.488;9.202;2023-12-22T09:42:23;4.73;;;2.73;;
17207;SDS011;8720;48.488;9.202;2023-12-22T09:44:53;5.87;;;3.10;;
17207;SDS011;8720;48.488;9.202;2023-12-22T09:47:24;8.83;;;2.33;;
17207;SDS011;8720;48.488;9.202;2023-12-22T09:49:57;7.47;;;2.00;;
17207;SDS011;8720;48.488;9.202;2023-12-22T09:52:25;5.93;;;2.10;;
17207;SDS011;8720;48.488;9.202;2023-12-22T09:54:55;3.97;;;2.50;;
17207;SDS011;8720;48.488;9.202;2023-12-22T09:57:24;7.23;;;1.80;;
17207;SDS011;8720;48.488;9.202;2023-12-22T09:59:54;5.93;;;2.10;;
17207;SDS011;8720;48.488;9.202;2023-12-22T10:02:23;9.53;;;2.30;;
17207;SDS011;8720;48.488;9.202;2023-12-22T10:04:52;5.03;;;2.20;;
17207;SDS011;8720;48.488;9.202;2023-12-22T10:07:21;3.80;;;2.37;;
17207;SDS011;8720;48.488;9.202;2023-12-22T10:09:49;5.63;;;2.40;;
17207;SDS011;8720;48.488;9.202;2023-12-22T10:12:18;7.47;;;2.40;;
17207;SDS011;8720;48.488;9.202;2023-12-22T10:14:47;6.80;;;2.47;;
17207;SDS011;8720;48.488;9.202;2023-12-22T10:17:14;5.43;;;2.00;;
17207;SDS011;8720;48.488;9.202;2023-12-22T10:19:43;4.80;;;2.10;;
17207;SDS011;8720;48.488;9.202;2023-12-22T10:22:11;4.80;;;2.37;;
17207;SDS011;8720;48.488;9.202;2023-12-22T10:24:40;9.43;;;2.77;;
17207;SDS011;8720;48.488;9.202;2023-12-22T10:27:09;3.80;;;2.37;;
17207;SDS011;8720;48.488;9.202;2023-12-22T10:29:37;5.80;;;2.03;;
17207;SDS011;8720;48.488;9.202;2023-12-22T10:32:05;7.03;;;3.10;;
17207;SDS011;8720;48.488;9.202;2023-12-22T10:34:34;5.20;;;2.13;;
17207;SDS011;8720;48.488;9.202;2023-12-22T10:37:02;5.00;;;2.33;;
17207;SDS011;8720;48.488;9.202;2023-12-22T10:39:30;8.83;;;2.70;;
17207;SDS011;8720;48.488;9.202;2023-12-22T10:42:00;4.23;;;1.70;;
17207;SDS011;8720;48.488;9.202;2023-12-22T10:44:29;3.20;;;1.73;;
17207;SDS011;8720;48.488;9.202;2023-12-22T10:46:57;4.40;;;2.40;;
17207;SDS011;8720;48.488;9.202;2023-12-22T10:49:28;4.47;;;2.20;;
17207;SDS011;8720;48.488;9.202;2023-12-22T10:51:57;7.03;;;2.70;;
17207;SDS011;8720;48.488;9.202;2023-12-22T10:54:24;6.33;;;2.63;;
17207;SDS011;8720;48.488;9.202;2023-12-22T10:56:52;4.73;;;2.30;;
17207;SDS011;8720;48.488;9.202;2023-12-22T10:59:27;4.20;;;2.07;;
17207;SDS011;8720;48.488;9.202;2023-12-22T11:01:56;3.50;;;2.00;;
17207;SDS011;8720;48.488;9.202;2023-12-22T11:04:28;4.60;;;2.10;;
17207;SDS011;8720;48.488;9.202;2023-12-22T11:07:02;7.17;;;2.33;;
17207;SDS011;8720;48.488;9.202;2023-12-22T11:09:31;5.83;;;2.40;;
17207;SDS011;8720;48.488;9.202;2023-12-22T11:12:02;5.13;;;3.10;;
17207;SDS011;8720;48.488;9.202;2023-12-22T11:14:32;4.53;;;2.77;;
17207;SDS011;8720;48.488;9.202;2023-12-22T11:17:03;5.83;;;2.40;;
17207;SDS011;8720;48.488;9.202;2023-12-22T11:19:32;6.53;;;2.27;;
17207;SDS011;8720;48.488;9.202;2023-12-22T11:22:02;8.40;;;3.47;;
17207;SDS011;8720;48.488;9.202;2023-12-22T11:24:36;7.43;;;3.00;;
17207;SDS011;8720;48.488;9.202;2023-12-22T11:27:07;5.83;;;3.03;;
17207;SDS011;8720;48.488;9.202;2023-12-22T11:29:39;4.47;;;2.83;;
17207;SDS011;8720;48.488;9.202;2023-12-22T11:32:08;4.47;;;2.63;;
17207;SDS011;8720;48.488;9.202;2023-12-22T11:34:41;9.77;;;2.60;;
17207;SDS011;8720;48.488;9.202;2023-12-22T11:37:11;3.80;;;2.10;;
17207;SDS011;8720;48.488;9.202;2023-12-22T11:39:39;6.13;;;2.23;;
17207;SDS011;8720;48.488;9.202;2023-12-22T11:42:08;5.80;;;2.10;;
17207;SDS011;8720;48.488;9.202;2023-12-22T11:44:42;4.50;;;2.13;;
17207;SDS011;8720;48.488;9.202;2023-12-22T11:47:10;7.43;;;2.50;;
17207;SDS011;8720;48.488;9.202;2023-12-22T11:49:40;3.77;;;2.27;;
17207;SDS011;8720;48.488;9.202;2023-12-22T11:52:11;5.53;;;1.80;;
17207;SDS011;8720;48.488;9.202;2023-12-22T11:54:43;3.83;;;1.60;;
17207;SDS011;8720;48.488;9.202;2023-12-22T12:00:07;4.23;;;1.60;;
17207;SDS011;8720;48.488;9.202;2023-12-22T12:02:58;6.77;;;1.70;;
17207;SDS011;8720;48.488;9.202;2023-12-22T12:05:32;4.85;;;2.20;;
17207;SDS011;8720;48.488;9.202;2023-12-22T12:08:06;2.33;;;1.57;;
17207;SDS011;8720;48.488;9.202;2023-12-22T12:10:50;3.97;;;2.10;;
17207;SDS011;8720;48.488;9.202;2023-12-22T12:13:22;3.50;;;1.80;;
17207;SDS011;8720;48.488;9.202;2023-12-22T12:15:51;2.80;;;2.37;;
17207;SDS011;8720;48.488;9.202;2023-12-22T12:18:23;4.87;;;2.43;;
17207;SDS011;8720;48.488;9.202;2023-12-22T12:20:51;2.93;;;2.43;;
17207;SDS011;8720;48.488;9.202;2023-12-22T12:23:18;3.87;;;2.20;;
17207;SDS011;8720;48.488;9.202;2023-12-22T12:25:47;3.60;;;1.20;;
17207;SDS011;8720;48.488;9.202;2023-12-22T12:28:15;3.67;;;1.50;;
17207;SDS011;8720;48.488;9.202;2023-12-22T12:30:43;2.37;;;1.17;;
17207;SDS011;8720;48.488;9.202;2023-12-22T12:33:12;1.30;;;1.10;;
17207;SDS011;8720;48.488;9.202;2023-12-22T12:35:43;3.37;;;1.37;;
17207;SDS011;8720;48.488;9.202;2023-12-22T12:38:12;2.00;;;1.30;;
17207;SDS011;8720;48.488;9.202;2023-12-22T12:40:43;2.20;;;1.77;;
17207;SDS011;8720;48.488;9.202;2023-12-22T12:43:16;2.23;;;1.20;;
17207;SDS011;8720;48.488;9.202;2023-12-22T12:45:44;1.80;;;1.20;;
17207;SDS011;8720;48.488;9.202;2023-12-22T12:48:12;2.17;;;1.70;;
17207;SDS011;8720;48.488;9.202;2023-12-22T12:50:45;2.10;;;1.43;;
17207;SDS011;8720;48.488;9.202;2023-12-22T12:53:12;3.03;;;1.40;;
17207;SDS011;8720;48.488;9.202;2023-12-22T12:55:40;2.10;;;1.40;;
17207;SDS011;8720;48.488;9.202;2023-12-22T12:58:08;2.00;;;1.40;;
17207;SDS011;8720;48.488;9.202;2023-12-22T13:00:36;2.00;;;1.30;;
17207;SDS011;8720;48.488;9.202;2023-12-22T13:03:04;2.93;;;1.80;;
17207;SDS011;8720;48.488;9.202;2023-12-22T13:05:32;2.10;;;1.07;;
17207;SDS011;8720;48.488;9.202;2023-12-22T13:08:08;2.00;;;1.37;;
17207;SDS011;8720;48.488;9.202;2023-12-22T13:10:37;1.77;;;1.20;;
17207;SDS011;8720;48.488;9.202;2023-12-22T13:13:06;1.50;;;1.10;;
17207;SDS011;8720;48.488;9.202;2023-12-22T13:15:33;1.53;;;1.10;;
17207;SDS011;8720;48.488;9.202;2023-12-22T13:18:01;2.77;;;1.60;;
17207;SDS011;8720;48.488;9.202;2023-12-22T13:20:28;1.40;;;1.00;;
17207;SDS011;8720;48.488;9.202;2023-12-22T13:22:56;2.33;;;1.00;;
17207;SDS011;8720;48.488;9.202;2023-12-22T13:25:25;1.13;;;0.90;;
17207;SDS011;8720;48.488;9.202;2023-12-22T13:27:55;1.23;;;0.90;;
17207;SDS011;8720;48.488;9.202;2023-12-22T13:30:31;1.40;;;0.87;;
17207;SDS011;8720;48.488;9.202;2023-12-22T13:32:59;1.60;;;1.00;;
17207;SDS011;8720;48.488;9.202;2023-12-22T13:35:27;2.37;;;0.97;;
17207;SDS011;8720;48.488;9.202;2023-12-22T13:37:55;1.47;;;0.70;;
17207;SDS011;8720;48.488;9.202;2023-12-22T13:40:23;1.40;;;0.80;;
17207;SDS011;8720;48.488;9.202;2023-12-22T13:42:54;1.00;;;0.80;;
17207;SDS011;8720;48.488;9.202;2023-12-22T13:45:22;1.60;;;1.10;;
17207;SDS011;8720;48.488;9.202;2023-12-22T13:47:50;1.60;;;1.13;;
17207;SDS011;8720;48.488;9.202;2023-12-22T13:50:18;3.13;;;1.13;;
17207;SDS011;8720;48.488;9.202;2023-12-22T13:52:48;3.00;;;1.40;;
17207;SDS011;8720;48.488;9.202;2023-12-22T13:55:16;1.80;;;1.40;;
17207;SDS011;8720;48.488;9.202;2023-12-22T13:57:50;1.73;;;1.10;;
17207;SDS011;8720;48.488;9.202;2023-12-22T14:00:27;1.73;;;1.07;;
17207;SDS011;8720;48.488;9.202;2023-12-22T14:02:56;2.63;;;1.50;;
17207;SDS011;8720;48.488;9.202;2023-12-22T14:05:24;2.23;;;1.20;;
17207;SDS011;8720;48.488;9.202;2023-12-22T14:07:53;2.43;;;1.30;;
17207;SDS011;8720;48.488;9.202;2023-12-22T14:10:21;1.90;;;1.30;;
17207;SDS011;8720;48.488;9.202;2023-12-22T14:12:50;1.90;;;0.90;;
17207;SDS011;8720;48.488;9.202;2023-12-22T14:15:19;2.03;;;1.13;;
17207;SDS011;8720;48.488;9.202;2023-12-22T14:17:50;1.93;;;0.80;;
17207;SDS011;8720;48.488;9.202;2023-12-22T14:20:18;1.10;;;0.83;;
17207;SDS011;8720;48.488;9.202;2023-12-22T14:22:46;1.97;;;1.00;;
17207;SDS011;8720;48.488;9.202;2023-12-22T14:25:13;1.27;;;0.87;;
17207;SDS011;8720;48.488;9.202;2023-12-22T14:27:41;1.40;;;0.90;;
17207;SDS011;8720;48.488;9.202;2023-12-22T14:30:11;1.53;;;1.10;;
17207;SDS011;8720;48.488;9.202;2023-12-22T14:32:40;1.67;;;1.27;;
17207;SDS011;8720;48.488;9.202;2023-12-22T14:35:07;1.87;;;1.10;;
17207;SDS011;8720;48.488;9.202;2023-12-22T14:37:35;1.57;;;0.90;;
17207;SDS011;8720;48.488;9.202;2023-12-22T14:40:02;1.20;;;0.70;;
17207;SDS011;8720;48.488;9.202;2023-12-22T14:42:31;1.30;;;0.97;;
17207;SDS011;8720;48.488;9.202;2023-12-22T14:44:59;1.73;;;1.20;;
17207;SDS011;8720;48.488;9.202;2023-12-22T14:47:28;2.67;;;1.20;;
17207;SDS011;8720;48.488;9.202;2023-12-22T14:49:56;1.20;;;1.00;;
17207;SDS011;8720;48.488;9.202;2023-12-22T14:52:25;1.60;;;1.27;;
17207;SDS011;8720;48.488;9.202;2023-12-22T14:54:52;1.93;;;1.30;;
17207;SDS011;8720;48.488;9.202;2023-12-22T14:57:20;1.80;;;1.30;;
17207;SDS011;8720;48.488;9.202;2023-12-22T14:59:47;2.20;;;1.40;;
17207;SDS011;8720;48.488;9.202;2023-12-22T15:02:15;2.27;;;1.77;;
17207;SDS011;8720;48.488;9.202;2023-12-22T15:04:43;1.60;;;1.20;;
17207;SDS011;8720;48.488;9.202;2023-12-22T15:07:14;2.30;;;1.93;;
17207;SDS011;8720;48.488;9.202;2023-12-22T15:09:42;5.30;;;2.30;;
17207;SDS011;8720;48.488;9.202;2023-12-22T15:12:10;3.83;;;2.13;;
17207;SDS011;8720;48.488;9.202;2023-12-22T15:14:42;4.53;;;2.30;;
17207;SDS011;8720;48.488;9.202;2023-12-22T15:17:11;4.53;;;1.90;;